createdAt,value
2018-10-17T00:00:25.931Z,2.42
2018-10-17T00:02:55.934Z,2.70
2018-10-17T00:05:25.948Z,3.00
2018-10-17T00:07:56.030Z,2.85
2018-10-17T00:10:25.974Z,2.58
2018-10-17T00:12:55.950Z,2.87
2018-10-17T00:15:26.098Z,2.42
2018-10-17T00:17:55.999Z,3.10
2018-10-17T00:20:25.995Z,2.73
2018-10-17T00:22:56.045Z,2.50
2018-10-17T00:25:26.074Z,2.37
2018-10-17T00:27:56.051Z,3.12
2018-10-17T00:30:26.003Z,2.58
2018-10-17T00:32:56.026Z,2.37
2018-10-17T00:35:26.049Z,2.70
2018-10-17T00:37:56.139Z,2.52
2018-10-17T00:40:26.059Z,2.70
2018-10-17T00:42:56.808Z,2.45
2018-10-17T00:45:26.266Z,2.90
2018-10-17T00:47:56.151Z,2.50
2018-10-17T00:50:26.095Z,2.52
2018-10-17T00:52:56.086Z,2.75
2018-10-17T00:55:26.086Z,3.58
2018-10-17T00:57:56.117Z,2.22
2018-10-17T01:00:26.097Z,2.50
2018-10-17T01:02:56.139Z,3.12
2018-10-17T01:05:26.063Z,2.60
2018-10-17T01:07:56.196Z,3.87
2018-10-17T01:10:26.094Z,2.45
2018-10-17T01:12:56.103Z,2.92
2018-10-17T01:15:26.130Z,2.35
2018-10-17T01:17:56.128Z,2.80
2018-10-17T01:23:04.326Z,2.67
2018-10-17T01:25:33.467Z,3.30
2018-10-17T01:28:10.726Z,2.70
2018-10-17T01:30:39.866Z,2.80
2018-10-17T01:33:09.047Z,2.83
2018-10-17T01:35:38.186Z,3.30
2018-10-17T01:38:07.319Z,2.70
2018-10-17T01:40:36.457Z,2.70
2018-10-17T01:43:05.775Z,2.67
2018-10-17T01:45:34.871Z,3.40
2018-10-17T01:48:04.013Z,2.87
2018-10-17T01:50:33.163Z,2.80
2018-10-17T01:53:02.376Z,2.80
2018-10-17T01:55:31.487Z,3.07
2018-10-17T01:58:00.628Z,2.58
2018-10-17T02:00:29.798Z,2.20
2018-10-17T02:02:58.946Z,2.83
2018-10-17T02:05:28.118Z,2.90
2018-10-17T02:07:57.262Z,2.77
2018-10-17T02:10:26.422Z,2.93
2018-10-17T02:12:56.309Z,3.10
2018-10-17T02:15:26.226Z,2.47
2018-10-17T02:17:56.240Z,2.62
2018-10-17T02:20:26.215Z,2.55
2018-10-17T02:22:56.266Z,2.40
2018-10-17T02:25:26.297Z,2.90
2018-10-17T02:27:56.311Z,2.52
2018-10-17T02:30:26.327Z,2.77
2018-10-17T02:32:56.362Z,2.47
2018-10-17T02:35:26.436Z,2.57
2018-10-17T02:37:56.350Z,3.55
2018-10-17T02:40:26.276Z,2.50
2018-10-17T02:42:56.308Z,2.50
2018-10-17T02:45:26.373Z,2.95
2018-10-17T02:47:56.346Z,3.37
2018-10-17T02:50:26.299Z,2.63
2018-10-17T02:52:56.451Z,3.37
2018-10-17T02:55:26.304Z,2.57
2018-10-17T02:57:56.334Z,2.67
2018-10-17T03:00:26.384Z,2.45
2018-10-17T03:02:56.401Z,2.80
2018-10-17T03:05:26.306Z,2.87
2018-10-17T03:07:56.405Z,2.50
2018-10-17T03:10:26.411Z,3.05
2018-10-17T03:12:56.481Z,2.70
2018-10-17T03:15:26.434Z,2.95
2018-10-17T03:17:56.349Z,2.65
2018-10-17T03:20:26.455Z,3.27
2018-10-17T03:22:56.458Z,3.00
2018-10-17T03:25:26.400Z,2.85
2018-10-17T03:27:56.532Z,2.87
2018-10-17T03:30:26.556Z,2.70
2018-10-17T03:32:56.469Z,3.00
2018-10-17T03:35:26.473Z,3.05
2018-10-17T03:37:56.512Z,2.70
2018-10-17T03:40:26.416Z,3.15
2018-10-17T03:42:56.620Z,2.77
2018-10-17T03:45:26.431Z,2.52
2018-10-17T03:47:56.467Z,2.25
2018-10-17T03:50:26.406Z,2.70
2018-10-17T03:52:56.549Z,2.77
2018-10-17T03:55:26.505Z,2.58
2018-10-17T03:57:56.526Z,2.47
2018-10-17T04:00:26.473Z,2.47
2018-10-17T04:02:56.575Z,2.85
2018-10-17T04:05:26.448Z,2.58
2018-10-17T04:07:56.558Z,3.02
2018-10-17T04:10:26.467Z,2.83
2018-10-17T04:12:56.547Z,2.90
2018-10-17T04:15:26.599Z,3.02
2018-10-17T04:17:56.588Z,3.20
2018-10-17T04:20:26.575Z,2.55
2018-10-17T04:22:57.398Z,3.10
2018-10-17T04:25:26.508Z,2.20
2018-10-17T04:27:56.529Z,2.75
2018-10-17T04:30:26.695Z,2.58
2018-10-17T04:32:56.653Z,3.20
2018-10-17T04:35:25.804Z,2.50
2018-10-17T04:37:54.947Z,2.47
2018-10-17T04:40:24.143Z,2.70
2018-10-17T04:42:53.545Z,3.27
2018-10-17T04:45:22.674Z,2.60
2018-10-17T04:47:51.846Z,3.07
2018-10-17T04:50:21.001Z,2.60
2018-10-17T04:52:50.138Z,3.27
2018-10-17T04:55:19.360Z,3.27
2018-10-17T04:57:48.555Z,3.03
2018-10-17T05:00:17.714Z,2.20
2018-10-17T05:02:46.859Z,3.27
2018-10-17T05:05:16.123Z,3.00
2018-10-17T05:07:45.163Z,3.20
2018-10-17T05:10:14.302Z,2.87
2018-10-17T05:12:43.479Z,3.10
2018-10-17T05:15:12.800Z,2.90
2018-10-17T05:17:41.886Z,2.90
2018-10-17T05:20:11.044Z,3.20
2018-10-17T05:22:40.200Z,2.30
2018-10-17T05:25:09.747Z,3.20
2018-10-17T05:27:38.875Z,2.90
2018-10-17T05:30:08.279Z,2.97
2018-10-17T05:32:37.435Z,3.00
2018-10-17T05:35:07.505Z,3.33
2018-10-17T05:37:36.697Z,2.87
2018-10-17T05:40:06.266Z,3.27
2018-10-17T05:42:35.403Z,2.50
2018-10-17T05:45:04.570Z,3.20
2018-10-17T05:47:33.791Z,2.58
2018-10-17T05:50:03.103Z,2.47
2018-10-17T05:52:32.267Z,2.87
2018-10-17T05:55:01.530Z,2.67
2018-10-17T05:57:30.775Z,3.20
2018-10-17T05:59:59.922Z,3.00
2018-10-17T06:02:31.704Z,2.33
2018-10-17T06:05:00.788Z,3.08
2018-10-17T06:07:29.948Z,2.57
2018-10-17T06:09:59.128Z,2.33
2018-10-17T06:12:28.270Z,2.53
2018-10-17T06:14:57.423Z,2.93
2018-10-17T06:17:27.000Z,3.35
2018-10-17T06:19:56.805Z,2.77
2018-10-17T06:22:26.866Z,3.12
2018-10-17T06:24:56.856Z,3.40
2018-10-17T06:27:26.830Z,3.30
2018-10-17T06:29:56.866Z,2.55
2018-10-17T06:32:26.804Z,2.53
2018-10-17T06:34:58.062Z,3.04
2018-10-17T06:37:27.273Z,2.73
2018-10-17T06:39:56.959Z,3.05
2018-10-17T06:42:26.846Z,3.07
2018-10-17T06:44:56.869Z,3.13
2018-10-17T06:47:27.160Z,3.33
2018-10-17T06:49:56.887Z,3.65
2018-10-17T06:52:26.951Z,2.98
2018-10-17T06:54:56.933Z,3.50
2018-10-17T06:57:26.963Z,2.87
2018-10-17T06:59:57.041Z,3.37
2018-10-17T07:02:27.049Z,3.37
2018-10-17T07:04:57.062Z,3.02
2018-10-17T07:07:26.983Z,3.20
2018-10-17T07:09:56.931Z,2.87
2018-10-17T07:12:26.950Z,2.80
2018-10-17T07:14:56.954Z,3.50
2018-10-17T07:17:26.995Z,3.65
2018-10-17T07:19:57.031Z,3.65
2018-10-17T07:22:27.119Z,2.95
2018-10-17T07:24:57.105Z,3.27
2018-10-17T07:27:27.009Z,3.25
2018-10-17T07:29:57.185Z,2.80
2018-10-17T07:32:27.194Z,3.80
2018-10-17T07:34:57.088Z,3.62
2018-10-17T07:37:27.204Z,3.05
2018-10-17T07:39:57.122Z,2.90
2018-10-17T07:42:27.147Z,3.35
2018-10-17T07:44:57.091Z,3.10
2018-10-17T07:47:27.132Z,3.30
2018-10-17T07:49:57.129Z,2.70
2018-10-17T07:52:27.182Z,3.10
2018-10-17T07:54:57.043Z,3.33
2018-10-17T07:57:27.062Z,3.55
2018-10-17T07:59:57.176Z,3.47
2018-10-17T08:02:27.195Z,3.35
2018-10-17T08:04:57.217Z,3.40
2018-10-17T08:07:27.131Z,3.67
2018-10-17T08:09:57.075Z,3.33
2018-10-17T08:12:27.265Z,3.17
2018-10-17T08:14:58.075Z,3.10
2018-10-17T08:17:27.243Z,3.40
2018-10-17T08:19:57.110Z,3.30
2018-10-17T08:22:28.325Z,3.52
2018-10-17T08:24:57.555Z,2.67
2018-10-17T08:27:27.237Z,3.52
2018-10-17T08:29:57.244Z,2.80
2018-10-17T08:32:27.159Z,3.40
2018-10-17T08:34:57.355Z,2.95
2018-10-17T08:37:28.220Z,3.65
2018-10-17T08:39:58.358Z,3.68
2018-10-17T08:42:27.531Z,3.30
2018-10-17T08:44:57.264Z,3.58
2018-10-17T08:47:27.179Z,3.17
2018-10-17T08:49:57.687Z,3.35
2018-10-17T08:52:27.253Z,3.25
2018-10-17T08:54:57.338Z,3.62
2018-10-17T08:57:27.425Z,4.22
2018-10-17T08:59:57.241Z,4.13
2018-10-17T09:02:27.341Z,3.83
2018-10-17T09:04:58.156Z,3.60
2018-10-17T09:07:27.311Z,3.63
2018-10-17T09:09:57.307Z,4.08
2018-10-17T09:12:27.275Z,4.17
2018-10-17T09:14:57.348Z,3.67
2018-10-17T09:17:27.254Z,3.57
2018-10-17T09:19:58.131Z,3.83
2018-10-17T09:22:27.600Z,3.98
2018-10-17T09:24:57.440Z,3.83
2018-10-17T09:27:27.555Z,3.60
2018-10-17T09:29:58.544Z,4.06
2018-10-17T09:32:27.637Z,3.70
2018-10-17T09:34:57.438Z,4.08
2018-10-17T09:37:27.376Z,3.70
2018-10-17T09:39:57.638Z,3.65
2018-10-17T09:42:27.311Z,3.30
2018-10-17T09:44:57.294Z,3.70
2018-10-17T09:47:27.301Z,3.40
2018-10-17T09:49:57.375Z,4.28
2018-10-17T09:52:27.413Z,3.65
2018-10-17T09:54:57.360Z,3.77
2018-10-17T09:57:27.431Z,3.87
2018-10-17T09:59:57.417Z,3.62
2018-10-17T10:02:27.446Z,3.72
2018-10-17T10:04:57.419Z,3.60
2018-10-17T10:07:27.479Z,3.35
2018-10-17T10:09:57.583Z,3.27
2018-10-17T10:12:27.371Z,3.35
2018-10-17T10:14:57.387Z,2.98
2018-10-17T10:17:27.397Z,3.05
2018-10-17T10:19:57.419Z,3.42
2018-10-17T10:22:27.587Z,3.50
2018-10-17T10:24:57.593Z,3.52
2018-10-17T10:27:27.890Z,4.10
2018-10-17T10:29:57.694Z,3.30
2018-10-17T10:32:27.539Z,3.42
2018-10-17T10:34:57.552Z,3.40
2018-10-17T10:37:27.460Z,3.25
2018-10-17T10:39:57.525Z,3.35
2018-10-17T10:42:27.552Z,3.65
2018-10-17T10:44:57.551Z,3.30
2018-10-17T10:47:27.563Z,3.70
2018-10-17T10:49:57.822Z,3.20
2018-10-17T10:52:27.578Z,3.00
2018-10-17T10:54:57.664Z,3.50
2018-10-17T10:57:27.638Z,3.35
2018-10-17T10:59:57.528Z,3.50
2018-10-17T11:02:27.519Z,2.95
2018-10-17T11:04:57.629Z,3.70
2018-10-17T11:07:27.505Z,2.80
2018-10-17T11:09:57.626Z,2.65
2018-10-17T11:12:27.750Z,3.40
2018-10-17T11:14:58.939Z,3.32
2018-10-17T11:17:27.917Z,3.17
2018-10-17T11:19:57.633Z,3.65
2018-10-17T11:22:27.592Z,3.33
2018-10-17T11:24:57.722Z,2.87
2018-10-17T11:27:27.571Z,2.90
2018-10-17T11:29:57.620Z,3.25
2018-10-17T11:32:27.607Z,3.30
2018-10-17T11:34:57.852Z,3.33
2018-10-17T11:37:27.875Z,3.17
2018-10-17T11:39:58.070Z,3.00
2018-10-17T11:42:27.579Z,2.90
2018-10-17T11:44:58.837Z,3.12
2018-10-17T11:47:27.978Z,2.73
2018-10-17T11:49:57.726Z,2.80
2018-10-17T11:52:27.643Z,2.75
2018-10-17T11:54:57.998Z,2.83
2018-10-17T11:57:28.616Z,3.17
2018-10-17T11:59:57.970Z,3.00
2018-10-17T12:02:27.980Z,2.35
2018-10-17T12:04:58.066Z,2.70
2018-10-17T12:07:27.646Z,2.50
2018-10-17T12:09:57.671Z,2.30
2018-10-17T12:12:27.811Z,2.75
2018-10-17T12:14:57.685Z,2.53
2018-10-17T12:17:27.771Z,2.37
2018-10-17T12:19:57.799Z,2.40
2018-10-17T12:22:27.747Z,2.85
2018-10-17T12:24:57.685Z,2.42
2018-10-17T12:27:27.686Z,2.20
2018-10-17T12:29:57.832Z,2.22
2018-10-17T12:32:27.724Z,1.85
2018-10-17T12:34:58.070Z,2.60
2018-10-17T12:37:27.803Z,2.20
2018-10-17T12:39:57.909Z,1.80
2018-10-17T12:42:27.747Z,2.05
2018-10-17T12:44:57.983Z,2.42
2018-10-17T12:47:27.844Z,2.10
2018-10-17T12:49:57.923Z,2.92
2018-10-17T12:52:27.889Z,2.25
2018-10-17T12:54:57.949Z,2.00
2018-10-17T12:57:27.886Z,2.15
2018-10-17T12:59:58.095Z,2.37
2018-10-17T13:02:27.883Z,2.30
2018-10-17T13:05:02.024Z,2.25
2018-10-17T13:07:31.066Z,2.27
2018-10-17T13:10:00.368Z,2.90
2018-10-17T13:12:29.505Z,2.67
2018-10-17T13:14:58.723Z,2.87
2018-10-17T13:17:27.850Z,3.00
2018-10-17T13:19:57.873Z,1.95
2018-10-17T13:22:27.947Z,2.27
2018-10-17T13:24:58.076Z,3.00
2018-10-17T13:27:27.906Z,2.65
2018-10-17T13:29:58.179Z,2.25
2018-10-17T13:32:28.054Z,2.22
2018-10-17T13:34:57.961Z,2.35
2018-10-17T13:37:28.052Z,2.12
2018-10-17T13:39:58.173Z,2.20
2018-10-17T13:42:27.969Z,1.85
2018-10-17T13:44:58.000Z,2.08
2018-10-17T13:47:28.007Z,2.15
2018-10-17T13:49:58.448Z,2.02
2018-10-17T13:52:27.611Z,1.90
2018-10-17T13:54:57.994Z,2.40
2018-10-17T13:57:27.930Z,2.25
2018-10-17T13:59:58.388Z,1.90
2018-10-17T14:02:34.864Z,1.95
2018-10-17T14:05:04.084Z,1.97
2018-10-17T14:07:33.252Z,2.00
2018-10-17T14:10:02.716Z,1.75
2018-10-17T14:12:31.911Z,1.87
2018-10-17T14:15:01.500Z,2.13
2018-10-17T14:17:30.607Z,1.53
2018-10-17T14:19:59.873Z,1.90
2018-10-17T14:22:29.142Z,1.90
2018-10-17T14:24:59.166Z,2.00
2018-10-17T14:27:28.418Z,2.33
2018-10-17T14:29:58.272Z,2.00
2018-10-17T14:32:28.096Z,2.17
2018-10-17T14:34:58.171Z,2.10
2018-10-17T14:37:28.270Z,2.75
2018-10-17T14:39:58.120Z,1.85
2018-10-17T14:42:29.387Z,2.15
2018-10-17T14:44:58.576Z,2.10
2018-10-17T14:47:28.102Z,1.70
2018-10-17T14:49:58.147Z,1.90
2018-10-17T14:52:28.110Z,2.72
2018-10-17T14:54:58.063Z,2.40
2018-10-17T14:57:28.423Z,2.00
2018-10-17T14:59:58.143Z,2.00
2018-10-17T15:02:28.239Z,1.95
2018-10-17T15:04:58.179Z,1.33
2018-10-17T15:07:28.123Z,1.80
2018-10-17T15:09:58.206Z,2.02
2018-10-17T15:12:28.082Z,2.30
2018-10-17T15:14:58.231Z,2.07
2018-10-17T15:17:34.894Z,1.83
2018-10-17T15:20:04.154Z,2.30
2018-10-17T15:22:33.313Z,2.20
2018-10-17T15:25:02.460Z,2.42
2018-10-17T15:27:31.615Z,2.07
2018-10-17T15:30:00.786Z,2.10
2018-10-17T15:32:29.945Z,1.97
2018-10-17T15:34:59.142Z,2.52
2018-10-17T15:37:28.302Z,2.30
2018-10-17T15:39:58.206Z,1.92
2018-10-17T15:42:28.219Z,2.10
2018-10-17T15:44:58.262Z,2.15
2018-10-17T15:47:28.315Z,2.02
2018-10-17T15:49:58.303Z,2.60
2018-10-17T15:52:28.154Z,2.08
2018-10-17T15:54:58.154Z,2.35
2018-10-17T15:57:28.279Z,1.82
2018-10-17T15:59:58.254Z,2.37
2018-10-17T16:02:28.352Z,2.58
2018-10-17T16:04:58.182Z,2.60
2018-10-17T16:07:28.290Z,2.65
2018-10-17T16:09:58.297Z,2.20
2018-10-17T16:12:28.319Z,2.30
2018-10-17T16:14:58.695Z,2.40
2018-10-17T16:17:28.377Z,2.60
2018-10-17T16:19:58.367Z,2.10
2018-10-17T16:22:28.267Z,2.97
2018-10-17T16:24:58.347Z,1.92
2018-10-17T16:27:28.401Z,2.50
2018-10-17T16:29:58.889Z,2.90
2018-10-17T16:32:28.359Z,2.57
2018-10-17T16:34:58.262Z,2.30
2018-10-17T16:37:28.285Z,2.30
2018-10-17T16:39:58.301Z,2.17
2018-10-17T16:42:28.271Z,2.55
2018-10-17T16:44:58.351Z,2.60
2018-10-17T16:47:28.396Z,2.77
2018-10-17T16:50:06.089Z,2.70
2018-10-17T16:52:36.031Z,2.27
2018-10-17T16:55:06.296Z,2.33
2018-10-17T16:57:35.461Z,2.60
2018-10-17T17:00:06.007Z,2.47
2018-10-17T17:02:35.131Z,2.77
2018-10-17T17:05:05.127Z,3.00
2018-10-17T17:07:34.314Z,2.57
2018-10-17T17:10:03.502Z,2.52
2018-10-17T17:12:32.735Z,2.85
2018-10-17T17:15:01.923Z,2.57
2018-10-17T17:17:31.666Z,3.13
2018-10-17T17:20:00.818Z,2.47
2018-10-17T17:22:30.011Z,2.73
2018-10-17T17:24:59.218Z,1.97
2018-10-17T17:27:29.017Z,2.50
2018-10-17T17:29:58.710Z,2.50
2018-10-17T17:32:28.539Z,2.30
2018-10-17T17:34:58.507Z,2.50
2018-10-17T17:37:28.502Z,2.27
2018-10-17T17:39:58.531Z,2.75
2018-10-17T17:42:28.453Z,2.27
2018-10-17T17:44:58.691Z,2.37
2018-10-17T17:47:28.641Z,2.33
2018-10-17T17:49:58.591Z,2.52
2018-10-17T17:52:28.617Z,2.45
2018-10-17T17:54:58.530Z,2.72
2018-10-17T17:57:28.486Z,2.30
2018-10-17T17:59:58.651Z,2.50
2018-10-17T18:02:28.528Z,2.27
2018-10-17T18:04:58.751Z,2.22
2018-10-17T18:07:30.710Z,2.40
2018-10-17T18:09:59.942Z,2.60
2018-10-17T18:12:29.045Z,2.60
2018-10-17T18:14:58.578Z,2.33
2018-10-17T18:17:28.588Z,2.42
2018-10-17T18:19:58.602Z,2.52
2018-10-17T18:22:27.765Z,2.70
2018-10-17T18:24:56.914Z,2.37
2018-10-17T18:27:26.179Z,2.27
2018-10-17T18:29:55.297Z,3.17
2018-10-17T18:32:24.456Z,2.90
2018-10-17T18:34:53.623Z,3.07
2018-10-17T18:37:22.766Z,2.40
2018-10-17T18:39:51.952Z,2.80
2018-10-17T18:42:21.107Z,2.30
2018-10-17T18:44:50.274Z,2.93
2018-10-17T18:47:19.410Z,2.73
2018-10-17T18:49:48.563Z,2.90
2018-10-17T18:52:17.715Z,2.87
2018-10-17T18:54:46.902Z,3.00
2018-10-17T18:57:16.089Z,2.70
2018-10-17T18:59:45.305Z,2.67
2018-10-17T19:02:14.466Z,2.73
2018-10-17T19:04:43.609Z,3.50
2018-10-17T19:07:12.791Z,2.85
2018-10-17T19:09:41.960Z,3.27
2018-10-17T19:12:11.215Z,3.27
2018-10-17T19:14:40.365Z,3.17
2018-10-17T19:17:09.516Z,3.05
2018-10-17T19:19:38.674Z,3.10
2018-10-17T19:22:07.879Z,2.90
2018-10-17T19:24:37.065Z,2.57
2018-10-17T19:27:06.657Z,2.65
2018-10-17T19:29:35.799Z,2.80
2018-10-17T19:32:04.983Z,3.00
2018-10-17T19:34:34.123Z,3.07
2018-10-17T19:37:03.270Z,3.52
2018-10-17T19:39:32.398Z,2.70
2018-10-17T19:42:01.602Z,2.50
2018-10-17T19:44:31.067Z,2.30
2018-10-17T19:47:00.208Z,2.50
2018-10-17T19:49:29.634Z,3.03
2018-10-17T19:51:59.074Z,2.72
2018-10-17T19:54:28.792Z,3.20
2018-10-17T19:56:58.891Z,2.70
2018-10-17T19:59:28.797Z,3.30
2018-10-17T20:01:58.966Z,2.77
2018-10-17T20:04:28.823Z,3.17
2018-10-17T20:06:59.187Z,2.75
2018-10-17T20:09:28.995Z,2.83
2018-10-17T20:11:58.843Z,3.00
2018-10-17T20:14:28.848Z,3.47
2018-10-17T20:16:58.879Z,3.37
2018-10-17T20:19:28.964Z,3.40
2018-10-17T20:21:59.003Z,3.52
2018-10-17T20:24:28.935Z,3.40
2018-10-17T20:26:59.065Z,3.20
2018-10-17T20:29:28.979Z,3.72
2018-10-17T20:31:58.990Z,4.05
2018-10-17T20:34:28.142Z,3.50
2018-10-17T20:36:57.303Z,3.47
2018-10-17T20:39:26.474Z,2.97
2018-10-17T20:41:55.624Z,3.03
2018-10-17T20:44:24.944Z,3.20
2018-10-17T20:46:54.142Z,2.93
2018-10-17T20:49:23.515Z,2.97
2018-10-17T20:51:52.687Z,3.10
2018-10-17T20:54:21.835Z,3.10
2018-10-17T20:56:51.643Z,3.00
2018-10-17T20:59:20.839Z,2.83
2018-10-17T21:01:50.036Z,3.13
2018-10-17T21:04:19.167Z,2.50
2018-10-17T21:06:48.306Z,3.00
2018-10-17T21:09:17.496Z,3.03
2018-10-17T21:11:46.774Z,3.40
2018-10-17T21:14:16.068Z,3.47
2018-10-17T21:16:45.115Z,2.98
2018-10-17T21:19:14.341Z,3.13
2018-10-17T21:21:43.515Z,3.23
2018-10-17T21:24:12.843Z,2.93
2018-10-17T21:26:42.049Z,2.90
2018-10-17T21:29:11.202Z,3.25
2018-10-17T21:31:40.427Z,3.20
2018-10-17T21:34:10.019Z,3.07
2018-10-17T21:36:39.182Z,3.47
2018-10-17T21:39:11.657Z,3.00
2018-10-17T21:41:40.819Z,3.33
2018-10-17T21:44:11.098Z,3.23
2018-10-17T21:46:40.646Z,3.65
2018-10-17T21:49:10.530Z,2.77
2018-10-17T21:51:40.183Z,2.97
2018-10-17T21:54:09.347Z,3.00
2018-10-17T21:56:38.579Z,3.53
2018-10-17T21:59:12.749Z,3.73
2018-10-17T22:01:41.938Z,4.33
2018-10-17T22:04:11.017Z,3.03
2018-10-17T22:06:40.173Z,3.75
2018-10-17T22:09:10.560Z,4.33
2018-10-17T22:11:39.867Z,3.20
2018-10-17T22:14:09.117Z,3.30
2018-10-17T22:16:43.567Z,3.62
2018-10-17T22:19:12.950Z,3.80
2018-10-17T22:21:41.856Z,3.73
2018-10-17T22:24:11.086Z,3.85
2018-10-17T22:26:40.232Z,3.10
2018-10-17T22:29:09.354Z,3.20
2018-10-17T22:31:38.503Z,3.67
2018-10-17T22:34:07.637Z,3.37
2018-10-17T22:36:36.775Z,2.67
2018-10-17T22:39:10.507Z,2.77
2018-10-17T22:41:39.643Z,2.98
2018-10-17T22:44:08.900Z,2.23
2018-10-17T22:46:38.027Z,2.63
2018-10-17T22:49:08.075Z,3.00
2018-10-17T22:51:37.686Z,2.80
2018-10-17T22:54:07.391Z,3.50
2018-10-17T22:56:37.015Z,3.00
2018-10-17T22:59:06.623Z,2.93
2018-10-17T23:01:36.128Z,3.20
2018-10-17T23:04:05.715Z,3.20
2018-10-17T23:06:34.886Z,2.93
2018-10-17T23:09:06.519Z,3.00
2018-10-17T23:11:35.690Z,3.07
2018-10-17T23:14:04.867Z,3.60
2018-10-17T23:16:34.363Z,3.33
2018-10-17T23:19:03.670Z,3.40
2018-10-17T23:21:32.823Z,2.87
2018-10-17T23:24:02.187Z,2.93
2018-10-17T23:26:31.313Z,3.60
2018-10-17T23:29:00.456Z,3.45
2018-10-17T23:31:29.606Z,3.47
2018-10-17T23:33:59.441Z,3.22
2018-10-17T23:36:29.763Z,3.00
2018-10-17T23:38:59.582Z,3.62
2018-10-17T23:41:29.535Z,3.35
2018-10-17T23:43:59.825Z,3.83
2018-10-17T23:46:29.531Z,3.87
2018-10-17T23:48:59.533Z,3.22
2018-10-17T23:51:29.503Z,3.95
2018-10-17T23:53:59.570Z,2.92
2018-10-17T23:56:29.552Z,3.15
2018-10-17T23:58:59.543Z,3.50
